^^
Your Local Weather - Clay, NY Station Historical Data
Daily Summary for May 9, 2017 Units:  English    Metric   Both
« Previous Day
Next Day »
Daily Weekly Monthly Yearly Custom
  High: Low: Average:
Temperature: 50.5 °F 35.8 °F 42.1 °F
Dew Point: 34.4 °F 28.6 °F 32.1 °F
Humidity: 86% 44% 69%
Wind Speed: 4.0mph 0.0mph 0.9mph
Wind Gust: 7.0mph - -
Wind- - WNW
Pressure: 30.03 in 29.92 in -
Precipitation: 0.00 in    
Historical Graphs
 
 
Tabular Data for May 9, 2017
Time Temperature Dew Point Pressure Wind Wind Speed Wind Gust Humidity Rainfall Rate (Hourly) solar
00:00 39.7 °F 33.4 °F 29.93 in Calm     78% 0.00 in 0 W/m2
00:06 39.7 °F 33.4 °F 29.93 in Calm     78% 0.00 in 0 W/m2
00:12 39.6 °F 33.6 °F 29.93 in Calm     79% 0.00 in 0 W/m2
00:18 39.6 °F 33.6 °F 29.93 in Calm     79% 0.00 in 0 W/m2
00:24 39.6 °F 33.6 °F 29.93 in Calm   1.0 mph 79% 0.00 in 0 W/m2
00:30 39.6 °F 33.6 °F 29.93 in Calm     79% 0.00 in 0 W/m2
00:36 39.6 °F 33.6 °F 29.93 in Calm     79% 0.00 in 0 W/m2
00:42 39.5 °F 33.5 °F 29.93 in Calm     79% 0.00 in 0 W/m2
00:48 39.5 °F 33.2 °F 29.93 in Calm     78% 0.00 in 0 W/m2
00:54 39.4 °F 33.1 °F 29.93 in NW 1.0 mph 2.0 mph 78% 0.00 in 0 W/m2
01:00 39.4 °F 33.1 °F 29.93 in Calm     78% 0.00 in 0 W/m2
01:06 39.3 °F 33.0 °F 29.93 in Calm   2.0 mph 78% 0.00 in 0 W/m2
01:12 39.3 °F 33.0 °F 29.93 in Calm     78% 0.00 in 0 W/m2
01:18 39.3 °F 33.0 °F 29.93 in Calm   3.0 mph 78% 0.00 in 0 W/m2
01:24 39.3 °F 33.3 °F 29.93 in Calm     79% 0.00 in 0 W/m2
01:30 39.3 °F 33.3 °F 29.92 in Calm     79% 0.00 in 0 W/m2
01:36 39.3 °F 33.3 °F 29.92 in Calm   1.0 mph 79% 0.00 in 0 W/m2
01:42 39.1 °F 33.1 °F 29.92 in Calm     79% 0.00 in 0 W/m2
01:48 39.0 °F 33.0 °F 29.92 in Calm     79% 0.00 in 0 W/m2
01:54 38.8 °F 33.2 °F 29.92 in Calm     80% 0.00 in 0 W/m2
02:00 38.7 °F 33.1 °F 29.92 in Calm     80% 0.00 in 0 W/m2
02:06 38.6 °F 33.0 °F 29.92 in Calm   1.0 mph 80% 0.00 in 0 W/m2
02:12 38.6 °F 33.3 °F 29.92 in Calm     81% 0.00 in 0 W/m2
02:18 38.5 °F 33.2 °F 29.92 in Calm   1.0 mph 81% 0.00 in 0 W/m2
02:24 38.5 °F 33.2 °F 29.92 in Calm     81% 0.00 in 0 W/m2
02:30 38.4 °F 33.1 °F 29.92 in Calm     81% 0.00 in 0 W/m2
02:36 38.2 °F 33.2 °F 29.92 in Calm     82% 0.00 in 0 W/m2
02:42 38.2 °F 33.2 °F 29.92 in Calm     82% 0.00 in 0 W/m2
02:48 38.1 °F 33.1 °F 29.92 in Calm     82% 0.00 in 0 W/m2
02:54 38.0 °F 33.0 °F 29.92 in Calm     82% 0.00 in 0 W/m2
03:00 38.0 °F 33.3 °F 29.92 in Calm     83% 0.00 in 0 W/m2
03:06 37.9 °F 33.2 °F 29.92 in Calm     83% 0.00 in 0 W/m2
03:12 37.9 °F 33.2 °F 29.92 in Calm     83% 0.00 in 0 W/m2
03:18 37.9 °F 33.5 °F 29.92 in Calm     84% 0.00 in 0 W/m2
03:24 37.9 °F 33.5 °F 29.92 in Calm     84% 0.00 in 0 W/m2
03:30 37.9 °F 33.5 °F 29.92 in Calm     84% 0.00 in 0 W/m2
03:36 37.9 °F 33.5 °F 29.92 in Calm     84% 0.00 in 0 W/m2
03:42 37.9 °F 33.8 °F 29.92 in Calm     85% 0.00 in 0 W/m2
03:48 37.9 °F 33.5 °F 29.92 in Calm     84% 0.00 in 0 W/m2
03:54 37.9 °F 33.8 °F 29.92 in Calm     85% 0.00 in 0 W/m2
04:00 38.0 °F 33.9 °F 29.92 in Calm     85% 0.00 in 0 W/m2
04:06 38.1 °F 34.0 °F 29.92 in Calm     85% 0.00 in 0 W/m2
04:12 38.1 °F 34.3 °F 29.92 in Calm     86% 0.00 in 0 W/m2
04:18 38.1 °F 34.3 °F 29.92 in Calm   1.0 mph 86% 0.00 in 0 W/m2
04:24 38.0 °F 34.2 °F 29.92 in Calm     86% 0.00 in 0 W/m2
04:30 38.0 °F 34.2 °F 29.92 in Calm     86% 0.00 in 0 W/m2
04:36 37.9 °F 34.1 °F 29.92 in Calm     86% 0.00 in 0 W/m2
04:42 38.0 °F 34.2 °F 29.92 in Calm     86% 0.00 in 0 W/m2
04:48 38.1 °F 34.3 °F 29.92 in Calm     86% 0.00 in 0 W/m2
04:54 38.2 °F 34.4 °F 29.92 in Calm   4.0 mph 86% 0.00 in 0 W/m2
05:00 38.3 °F 33.9 °F 29.92 in WSW 2.0 mph 2.0 mph 84% 0.00 in 0 W/m2
05:06 38.4 °F 33.7 °F 29.92 in WSW 2.0 mph 5.0 mph 83% 0.00 in 0 W/m2
05:12 38.4 °F 33.7 °F 29.92 in SW 2.0 mph 3.0 mph 83% 0.00 in 0 W/m2
05:18 38.3 °F 33.6 °F 29.92 in West 1.0 mph 3.0 mph 83% 0.00 in 0 W/m2
05:24 38.2 °F 33.2 °F 29.92 in SW 1.0 mph 2.0 mph 82% 0.00 in 0 W/m2
05:30 38.0 °F 33.0 °F 29.92 in WSW 1.0 mph 2.0 mph 82% 0.00 in 0 W/m2
05:36 37.7 °F 32.7 °F 29.92 in West 1.0 mph 2.0 mph 82% 0.00 in 0 W/m2
05:42 37.4 °F 32.7 °F 29.92 in WNW 1.0 mph 1.0 mph 83% 0.00 in 0 W/m2
05:48 37.1 °F 32.4 °F 29.92 in Calm   1.0 mph 83% 0.00 in 5 W/m2
05:54 37.0 °F 32.6 °F 29.92 in Calm     84% 0.00 in 7 W/m2
06:00 37.0 °F 32.6 °F 29.92 in Calm     84% 0.00 in 9 W/m2
06:06 37.0 °F 32.6 °F 29.92 in Calm     84% 0.00 in 11 W/m2
06:12 37.1 °F 33.0 °F 29.92 in Calm     85% 0.00 in 11 W/m2
06:18 37.2 °F 33.1 °F 29.93 in Calm   1.0 mph 85% 0.00 in 16 W/m2
06:24 37.3 °F 33.2 °F 29.93 in Calm     85% 0.00 in 23 W/m2
06:30 37.3 °F 33.2 °F 29.93 in Calm     85% 0.00 in 28 W/m2
06:36 37.4 °F 33.3 °F 29.94 in Calm     85% 0.00 in 30 W/m2
06:42 37.5 °F 33.4 °F 29.94 in Calm   1.0 mph 85% 0.00 in 35 W/m2
06:48 37.6 °F 33.5 °F 29.94 in Calm   2.0 mph 85% 0.00 in 35 W/m2
06:54 37.7 °F 33.3 °F 29.95 in WSW 1.0 mph 4.0 mph 84% 0.00 in 33 W/m2
07:00 37.7 °F 33.3 °F 29.95 in WSW 1.0 mph 2.0 mph 84% 0.00 in 44 W/m2
07:06 37.8 °F 33.1 °F 29.95 in WSW 2.0 mph 2.0 mph 83% 0.00 in 53 W/m2
07:12 37.9 °F 33.2 °F 29.95 in WSW 1.0 mph 1.0 mph 83% 0.00 in 63 W/m2
07:18 38.1 °F 33.4 °F 29.95 in Calm   1.0 mph 83% 0.00 in 72 W/m2
07:24 38.3 °F 33.3 °F 29.95 in Calm   1.0 mph 82% 0.00 in 67 W/m2
07:30 38.5 °F 33.5 °F 29.95 in Calm   2.0 mph 82% 0.00 in 63 W/m2
07:36 38.6 °F 33.3 °F 29.96 in South 1.0 mph 3.0 mph 81% 0.00 in 69 W/m2
07:42 38.7 °F 33.4 °F 29.96 in SW 1.0 mph 1.0 mph 81% 0.00 in 76 W/m2
07:48 38.8 °F 33.2 °F 29.96 in Calm   3.0 mph 80% 0.00 in 84 W/m2
07:54 38.9 °F 32.9 °F 29.96 in WSW 1.0 mph 1.0 mph 79% 0.00 in 88 W/m2
08:00 39.0 °F 33.0 °F 29.97 in Calm     79% 0.00 in 91 W/m2
08:06 39.1 °F 32.8 °F 29.97 in Calm   3.0 mph 78% 0.00 in 97 W/m2
08:12 39.2 °F 32.9 °F 29.97 in WSW 1.0 mph 1.0 mph 78% 0.00 in 105 W/m2
08:18 39.4 °F 33.1 °F 29.97 in Calm   1.0 mph 78% 0.00 in 105 W/m2
08:24 39.6 °F 33.3 °F 29.97 in Calm     78% 0.00 in 105 W/m2
08:30 39.7 °F 33.1 °F 29.97 in NW 1.0 mph 1.0 mph 77% 0.00 in 95 W/m2
08:36 39.7 °F 33.1 °F 29.97 in West 1.0 mph 4.0 mph 77% 0.00 in 121 W/m2
08:42 39.7 °F 32.8 °F 29.97 in West 1.0 mph 1.0 mph 76% 0.00 in 141 W/m2
08:48 40.0 °F 33.4 °F 29.97 in Calm   1.0 mph 77% 0.00 in 167 W/m2
08:54 40.2 °F 33.2 °F 29.98 in Calm   1.0 mph 76% 0.00 in 165 W/m2
09:00 40.4 °F 33.1 °F 29.98 in NW 1.0 mph 1.0 mph 75% 0.00 in 169 W/m2
09:06 40.6 °F 33.3 °F 29.98 in NW 1.0 mph 1.0 mph 75% 0.00 in 165 W/m2
09:12 40.6 °F 33.6 °F 29.98 in NW 1.0 mph 1.0 mph 76% 0.00 in 176 W/m2
09:18 40.8 °F 33.2 °F 29.98 in Calm   1.0 mph 74% 0.00 in 193 W/m2
09:24 40.9 °F 33.2 °F 29.98 in NW 1.0 mph 3.0 mph 74% 0.00 in 190 W/m2
09:30 40.8 °F 32.8 °F 29.99 in WSW 1.0 mph 1.0 mph 73% 0.00 in 178 W/m2
09:36 41.0 °F 32.7 °F 29.99 in WSW 1.0 mph 3.0 mph 72% 0.00 in 192 W/m2
09:42 41.2 °F 33.5 °F 29.99 in SW 1.0 mph 1.0 mph 74% 0.00 in 211 W/m2
09:48 41.4 °F 33.4 °F 29.99 in SW 1.0 mph 1.0 mph 73% 0.00 in 220 W/m2
09:54 41.5 °F 33.5 °F 29.99 in SSW 1.0 mph 3.0 mph 73% 0.00 in 262 W/m2
10:00 41.7 °F 33.0 °F 29.99 in WSW 1.0 mph 1.0 mph 71% 0.00 in 260 W/m2
10:06 42.0 °F 32.6 °F 29.99 in WSW 1.0 mph 3.0 mph 69% 0.00 in 274 W/m2
10:12 42.1 °F 32.7 °F 29.99 in NW 1.0 mph 2.0 mph 69% 0.00 in 218 W/m2
10:18 42.1 °F 32.7 °F 29.99 in West 1.0 mph 2.0 mph 69% 0.00 in 258 W/m2
10:24 42.2 °F 32.8 °F 29.99 in WSW 1.0 mph 2.0 mph 69% 0.00 in 304 W/m2
10:30 42.5 °F 33.0 °F 29.99 in WSW 1.0 mph 2.0 mph 69% 0.00 in 336 W/m2
10:36 42.7 °F 32.1 °F 29.99 in West 1.0 mph 3.0 mph 66% 0.00 in 322 W/m2
10:42 42.7 °F 32.1 °F 29.99 in WSW 2.0 mph 2.0 mph 66% 0.00 in 297 W/m2
10:48 42.9 °F 32.3 °F 29.99 in WSW 2.0 mph 3.0 mph 66% 0.00 in 309 W/m2
10:54 43.3 °F 32.7 °F 29.99 in WSW 1.0 mph 2.0 mph 66% 0.00 in 287 W/m2
11:00 43.5 °F 33.6 °F 29.99 in WSW 1.0 mph 1.0 mph 68% 0.00 in 318 W/m2
11:06 43.8 °F 32.8 °F 30.00 in SSW 2.0 mph 4.0 mph 65% 0.00 in 334 W/m2
11:12 43.8 °F 33.2 °F 30.00 in NW 2.0 mph 3.0 mph 66% 0.00 in 348 W/m2
11:18 44.0 °F 32.2 °F 30.00 in West 1.0 mph 3.0 mph 63% 0.00 in 364 W/m2
11:24 44.1 °F 32.7 °F 30.00 in SW 2.0 mph 5.0 mph 64% 0.00 in 366 W/m2
11:30 44.2 °F 32.0 °F 29.99 in SW 2.0 mph 3.0 mph 62% 0.00 in 425 W/m2
11:36 44.6 °F 32.0 °F 29.99 in WSW 2.0 mph 4.0 mph 61% 0.00 in 468 W/m2
11:42 44.8 °F 33.4 °F 29.99 in WNW 1.0 mph 2.0 mph 64% 0.00 in 462 W/m2
11:48 45.1 °F 32.8 °F 29.99 in WSW 1.0 mph 4.0 mph 62% 0.00 in 439 W/m2
11:56 45.6 °F 32.1 °F 29.99 in NW 2.0 mph 6.0 mph 59% 0.00 in 397 W/m2
12:02 45.6 °F 32.5 °F 29.99 in NW 2.0 mph 6.0 mph 60% 0.00 in 250 W/m2
12:08 45.3 °F 31.0 °F 29.99 in WNW 1.0 mph 6.0 mph 57% 0.00 in 272 W/m2
12:14 45.4 °F 32.3 °F 30.00 in NNW 2.0 mph 4.0 mph 60% 0.00 in 202 W/m2
12:20 45.1 °F 31.2 °F 30.00 in NNW 2.0 mph 2.0 mph 58% 0.00 in 169 W/m2
12:26 44.9 °F 31.4 °F 30.00 in NNW 1.0 mph 2.0 mph 59% 0.00 in 267 W/m2
12:32 45.5 °F 31.6 °F 29.99 in WNW 1.0 mph 2.0 mph 58% 0.00 in 388 W/m2
12:38 46.1 °F 33.0 °F 29.99 in West 1.0 mph 4.0 mph 60% 0.00 in 431 W/m2
12:44 46.4 °F 32.8 °F 29.99 in NW 1.0 mph 1.0 mph 59% 0.00 in 269 W/m2
12:50 46.4 °F 31.1 °F 29.99 in NW 1.0 mph 1.0 mph 55% 0.00 in 269 W/m2
12:56 46.3 °F 32.3 °F 29.99 in West 1.0 mph 3.0 mph 58% 0.00 in 288 W/m2
13:02 46.5 °F 32.9 °F 29.99 in West 1.0 mph 1.0 mph 59% 0.00 in 297 W/m2
13:08 46.8 °F 32.8 °F 29.99 in NNW 1.0 mph 4.0 mph 58% 0.00 in 257 W/m2
13:14 46.6 °F 31.7 °F 29.99 in North 2.0 mph 7.0 mph 56% 0.00 in 253 W/m2
13:20 46.6 °F 32.6 °F 29.99 in NW 3.0 mph 3.0 mph 58% 0.00 in 438 W/m2
13:26 47.6 °F 31.8 °F 29.99 in NW 2.0 mph 5.0 mph 54% 0.00 in 721 W/m2
13:32 48.1 °F 32.2 °F 29.99 in WNW 3.0 mph 3.0 mph 54% 0.00 in 526 W/m2
13:38 47.5 °F 32.1 °F 29.98 in SW 2.0 mph 3.0 mph 55% 0.00 in 643 W/m2
13:44 48.3 °F 32.4 °F 29.98 in SW 1.0 mph 2.0 mph 54% 0.00 in 675 W/m2
13:50 48.6 °F 31.3 °F 29.98 in West 1.0 mph 1.0 mph 51% 0.00 in 338 W/m2
13:56 47.8 °F 31.5 °F 29.98 in WNW 1.0 mph 2.0 mph 53% 0.00 in 186 W/m2
14:02 47.3 °F 31.0 °F 29.98 in West 1.0 mph 1.0 mph 53% 0.00 in 185 W/m2
14:08 47.6 °F 32.2 °F 29.98 in West 1.0 mph 3.0 mph 55% 0.00 in 308 W/m2
14:14 48.0 °F 32.1 °F 29.98 in West 1.0 mph 3.0 mph 54% 0.00 in 292 W/m2
14:20 47.6 °F 30.3 °F 29.98 in SSW 2.0 mph 2.0 mph 51% 0.00 in 200 W/m2
14:26 47.4 °F 32.0 °F 29.98 in SSW 1.0 mph 2.0 mph 55% 0.00 in 172 W/m2
14:32 47.8 °F 31.5 °F 29.98 in Calm   1.0 mph 53% 0.00 in 188 W/m2
14:38 48.1 °F 30.3 °F 29.98 in Calm   1.0 mph 50% 0.00 in 225 W/m2
14:44 48.1 °F 30.3 °F 29.97 in WSW 1.0 mph 1.0 mph 50% 0.00 in 272 W/m2
14:50 48.7 °F 32.8 °F 29.97 in West 1.0 mph 1.0 mph 54% 0.00 in 227 W/m2
14:56 48.9 °F 30.1 °F 29.97 in Calm   1.0 mph 48% 0.00 in 359 W/m2
15:02 49.5 °F 30.1 °F 29.97 in WNW 1.0 mph 3.0 mph 47% 0.00 in 250 W/m2
15:08 49.4 °F 30.5 °F 29.97 in Calm   3.0 mph 48% 0.00 in 246 W/m2
15:14 49.4 °F 31.0 °F 29.97 in SW 1.0 mph 3.0 mph 49% 0.00 in 406 W/m2
15:20 49.4 °F 33.0 °F 29.96 in SSW 2.0 mph 2.0 mph 53% 0.00 in 258 W/m2
15:26 49.2 °F 32.8 °F 29.96 in South 2.0 mph 2.0 mph 53% 0.00 in 367 W/m2
15:32 49.3 °F 32.9 °F 29.96 in WSW 1.0 mph 2.0 mph 53% 0.00 in 338 W/m2
15:38 49.5 °F 29.0 °F 29.96 in WSW 1.0 mph 2.0 mph 45% 0.00 in 294 W/m2
15:44 49.3 °F 32.4 °F 29.96 in SSE 1.0 mph 4.0 mph 52% 0.00 in 272 W/m2
15:50 49.6 °F 30.7 °F 29.96 in West 1.0 mph 1.0 mph 48% 0.00 in 352 W/m2
15:56 49.6 °F 28.6 °F 29.96 in WSW 1.0 mph 4.0 mph 44% 0.00 in 230 W/m2
16:02 49.3 °F 29.4 °F 29.96 in WSW 2.0 mph 2.0 mph 46% 0.00 in 232 W/m2
16:08 49.7 °F 29.7 °F 29.96 in WSW 1.0 mph 2.0 mph 46% 0.00 in 255 W/m2
16:14 49.9 °F 30.5 °F 29.96 in NW 1.0 mph 2.0 mph 47% 0.00 in 260 W/m2
16:20 49.7 °F 30.8 °F 29.96 in NW 1.0 mph 1.0 mph 48% 0.00 in 209 W/m2
16:26 49.6 °F 30.2 °F 29.97 in North 2.0 mph 3.0 mph 47% 0.00 in 207 W/m2
16:32 49.5 °F 30.6 °F 29.97 in NNW 2.0 mph 2.0 mph 48% 0.00 in 185 W/m2
16:38 49.6 °F 32.7 °F 29.97 in NW 2.0 mph 3.0 mph 52% 0.00 in 366 W/m2
16:44 50.1 °F 31.7 °F 29.97 in NW 2.0 mph 5.0 mph 49% 0.00 in 457 W/m2
16:50 50.0 °F 30.5 °F 29.97 in NNW 3.0 mph 3.0 mph 47% 0.00 in 396 W/m2
16:56 50.5 °F 32.0 °F 29.97 in NW 2.0 mph 3.0 mph 49% 0.00 in 332 W/m2
17:02 50.0 °F 30.5 °F 29.97 in NNW 3.0 mph 4.0 mph 47% 0.00 in 343 W/m2
17:08 50.1 °F 31.7 °F 29.97 in North 4.0 mph 7.0 mph 49% 0.00 in 403 W/m2
17:14 49.7 °F 31.3 °F 29.97 in NNW 4.0 mph 4.0 mph 49% 0.00 in 209 W/m2
17:20 49.0 °F 30.1 °F 29.98 in NW 3.0 mph 6.0 mph 48% 0.00 in 211 W/m2
17:26 48.4 °F 31.1 °F 29.98 in NNW 4.0 mph 6.0 mph 51% 0.00 in 188 W/m2
17:32 48.3 °F 30.5 °F 29.98 in NNW 3.0 mph 5.0 mph 50% 0.00 in 169 W/m2
17:38 48.2 °F 30.4 °F 29.97 in NW 3.0 mph 5.0 mph 50% 0.00 in 153 W/m2
17:44 47.9 °F 30.1 °F 29.98 in NNW 2.0 mph 3.0 mph 50% 0.00 in 144 W/m2
17:50 47.5 °F 30.3 °F 29.98 in NNW 3.0 mph 3.0 mph 51% 0.00 in 142 W/m2
17:56 47.3 °F 30.1 °F 29.98 in NNW 3.0 mph 3.0 mph 51% 0.00 in 167 W/m2
18:02 47.2 °F 30.0 °F 29.98 in NW 2.0 mph 7.0 mph 51% 0.00 in 146 W/m2
18:08 46.9 °F 29.7 °F 29.98 in NW 3.0 mph 7.0 mph 51% 0.00 in 118 W/m2
18:14 46.7 °F 29.5 °F 29.98 in North 4.0 mph 6.0 mph 51% 0.00 in 100 W/m2
18:20 46.5 °F 29.8 °F 29.98 in North 3.0 mph 5.0 mph 52% 0.00 in 77 W/m2
18:26 46.4 °F 30.2 °F 29.99 in NW 3.0 mph 7.0 mph 53% 0.00 in 83 W/m2
18:32 46.3 °F 30.5 °F 29.99 in NW 2.0 mph 3.0 mph 54% 0.00 in 90 W/m2
18:38 46.3 °F 31.4 °F 29.98 in NW 1.0 mph 3.0 mph 56% 0.00 in 109 W/m2
18:44 46.4 °F 30.2 °F 29.98 in NW 1.0 mph 3.0 mph 53% 0.00 in 114 W/m2
18:50 46.5 °F 31.2 °F 30.00 in NW 1.0 mph 2.0 mph 55% 0.00 in 113 W/m2
18:56 46.4 °F 29.7 °F 30.00 in NW 1.0 mph 2.0 mph 52% 0.00 in 97 W/m2
19:02 46.2 °F 29.5 °F 30.00 in NW 1.0 mph 4.0 mph 52% 0.00 in 76 W/m2
19:08 45.9 °F 30.2 °F 30.00 in NW 1.0 mph 4.0 mph 54% 0.00 in 65 W/m2
19:14 45.5 °F 29.8 °F 30.00 in NW 1.0 mph 2.0 mph 54% 0.00 in 63 W/m2
19:20 45.1 °F 29.9 °F 30.00 in NNW 2.0 mph 2.0 mph 55% 0.00 in 47 W/m2
19:26 44.9 °F 30.1 °F 30.00 in WSW 1.0 mph 4.0 mph 56% 0.00 in 40 W/m2
19:32 44.7 °F 30.0 °F 30.00 in WSW 1.0 mph 1.0 mph 56% 0.00 in 32 W/m2
19:38 44.5 °F 30.6 °F 30.00 in Calm   1.0 mph 58% 0.00 in 39 W/m2
19:44 44.2 °F 30.8 °F 30.00 in NNW 1.0 mph 1.0 mph 59% 0.00 in 35 W/m2
19:50 43.7 °F 30.7 °F 30.00 in NW 1.0 mph 1.0 mph 60% 0.00 in 25 W/m2
19:56 43.3 °F 30.7 °F 30.00 in NNW 2.0 mph 4.0 mph 61% 0.00 in 12 W/m2
20:04 42.6 °F 30.5 °F 30.00 in NW 2.0 mph 4.0 mph 62% 0.00 in 7 W/m2
20:10 42.3 °F 30.6 °F 30.00 in NW 2.0 mph 2.0 mph 63% 0.00 in 0 W/m2
20:16 42.1 °F 30.4 °F 30.01 in NNW 1.0 mph 3.0 mph 63% 0.00 in 0 W/m2
20:22 41.9 °F 30.6 °F 30.01 in NNW 1.0 mph 1.0 mph 64% 0.00 in 0 W/m2
20:30 41.7 °F 30.4 °F 30.01 in NW 1.0 mph 4.0 mph 64% 0.00 in 0 W/m2
20:36 41.5 °F 30.6 °F 30.01 in NW 2.0 mph 4.0 mph 65% 0.00 in 0 W/m2
20:42 41.2 °F 30.7 °F 30.01 in NNW 2.0 mph 2.0 mph 66% 0.00 in 0 W/m2
20:50 40.9 °F 30.4 °F 30.01 in WNW 1.0 mph 1.0 mph 66% 0.00 in 0 W/m2
20:56 40.8 °F 30.7 °F 30.01 in WNW 1.0 mph 2.0 mph 67% 0.00 in 0 W/m2
21:02 40.6 °F 30.9 °F 30.02 in Calm   3.0 mph 68% 0.00 in 0 W/m2
21:08 40.5 °F 30.4 °F 30.02 in NW 2.0 mph 3.0 mph 67% 0.00 in 0 W/m2
21:14 40.4 °F 30.7 °F 30.02 in NNW 2.0 mph 4.0 mph 68% 0.00 in 0 W/m2
21:20 40.3 °F 30.9 °F 30.02 in NNW 1.0 mph 1.0 mph 69% 0.00 in 0 W/m2
21:26 40.2 °F 30.5 °F 30.02 in NNW 1.0 mph 3.0 mph 68% 0.00 in 0 W/m2
21:32 40.0 °F 30.6 °F 30.02 in NNW 1.0 mph 1.0 mph 69% 0.00 in 0 W/m2
21:38 39.8 °F 30.5 °F 30.03 in Calm   1.0 mph 69% 0.00 in 0 W/m2
21:44 39.6 °F 30.6 °F 30.03 in Calm   2.0 mph 70% 0.00 in 0 W/m2
21:50 39.4 °F 30.8 °F 30.02 in Calm     71% 0.00 in 0 W/m2
21:56 39.1 °F 30.5 °F 30.02 in Calm     71% 0.00 in 0 W/m2
22:02 38.9 °F 30.6 °F 30.02 in Calm   2.0 mph 72% 0.00 in 0 W/m2
22:08 38.7 °F 30.4 °F 30.02 in Calm   2.0 mph 72% 0.00 in 0 W/m2
22:14 38.6 °F 30.7 °F 30.03 in Calm     73% 0.00 in 0 W/m2
22:20 38.4 °F 30.5 °F 30.03 in Calm     73% 0.00 in 0 W/m2
22:26 38.3 °F 30.7 °F 30.03 in Calm   1.0 mph 74% 0.00 in 0 W/m2
22:32 38.1 °F 30.5 °F 30.03 in Calm     74% 0.00 in 0 W/m2
22:38 37.9 °F 30.4 °F 30.03 in Calm     74% 0.00 in 0 W/m2
22:44 37.7 °F 30.5 °F 30.03 in Calm     75% 0.00 in 0 W/m2
22:50 37.5 °F 30.3 °F 30.03 in Calm     75% 0.00 in 0 W/m2
22:56 37.3 °F 30.4 °F 30.03 in Calm     76% 0.00 in 0 W/m2
23:02 37.1 °F 30.2 °F 30.02 in Calm     76% 0.00 in 0 W/m2
23:08 36.9 °F 30.4 °F 30.02 in Calm     77% 0.00 in 0 W/m2
23:14 36.7 °F 30.5 °F 30.02 in Calm     78% 0.00 in 0 W/m2
23:20 36.5 °F 30.6 °F 30.01 in Calm     79% 0.00 in 0 W/m2
23:26 36.4 °F 30.8 °F 30.02 in Calm     80% 0.00 in 0 W/m2
23:32 36.2 °F 30.6 °F 30.02 in Calm     80% 0.00 in 0 W/m2
23:38 36.0 °F 31.0 °F 30.02 in Calm   1.0 mph 82% 0.00 in 0 W/m2
23:44 36.0 °F 31.0 °F 30.03 in Calm     82% 0.00 in 0 W/m2
23:50 35.9 °F 30.9 °F 30.03 in Calm     82% 0.00 in 0 W/m2
23:56 35.8 °F 31.1 °F 30.03 in Calm     83% 0.00 in 0 W/m2
Country Meadow, Clay, NY, USA
Compliments of Weather Underground - 2 mb